createdAt,value
2018-04-12T00:00:13.233Z,56.90
2018-04-12T00:01:13.185Z,69.20
2018-04-12T00:02:13.150Z,52.80
2018-04-12T00:03:13.086Z,65.00
2018-04-12T00:04:13.115Z,52.10
2018-04-12T00:05:13.003Z,57.50
2018-04-12T00:06:13.010Z,70.10
2018-04-12T00:07:12.921Z,50.50
2018-04-12T00:08:12.920Z,53.20
2018-04-12T00:09:12.899Z,56.50
2018-04-12T00:10:12.844Z,60.40
2018-04-12T00:11:12.753Z,68.50
2018-04-12T00:12:12.745Z,87.50
2018-04-12T00:13:12.728Z,57.90
2018-04-12T00:14:12.669Z,74.00
2018-04-12T00:15:12.625Z,71.60
2018-04-12T00:16:12.588Z,45.70
2018-04-12T00:17:12.543Z,49.20
2018-04-12T00:18:12.486Z,53.90
2018-04-12T00:19:12.469Z,73.00
2018-04-12T00:20:12.397Z,68.00
2018-04-12T00:21:12.415Z,51.80
2018-04-12T00:22:12.349Z,49.70
2018-04-12T00:23:12.330Z,66.70
2018-04-12T00:24:12.235Z,50.20
2018-04-12T00:25:12.235Z,60.30
2018-04-12T00:26:12.184Z,70.40
2018-04-12T00:27:12.137Z,60.50
2018-04-12T00:28:12.091Z,56.80
2018-04-12T00:29:12.047Z,57.30
2018-04-12T00:30:12.042Z,73.00
2018-04-12T00:31:11.963Z,52.00
2018-04-12T00:32:11.965Z,48.30
2018-04-12T00:33:11.971Z,59.30
2018-04-12T00:34:11.875Z,51.60
2018-04-12T00:35:11.810Z,43.90
2018-04-12T00:36:11.757Z,52.30
2018-04-12T00:37:11.726Z,70.90
2018-04-12T00:38:11.708Z,64.70
2018-04-12T00:39:11.649Z,49.10
2018-04-12T00:40:11.613Z,55.00
2018-04-12T00:41:11.581Z,72.90
2018-04-12T00:42:11.518Z,72.30
2018-04-12T00:43:11.479Z,67.40
2018-04-12T00:44:11.549Z,64.80
2018-04-12T00:45:11.433Z,58.90
2018-04-12T00:46:11.381Z,74.50
2018-04-12T00:47:11.298Z,48.80
2018-04-12T00:48:11.283Z,87.70
2018-04-12T00:49:11.235Z,92.10
2018-04-12T00:50:11.175Z,81.70
2018-04-12T00:51:11.158Z,70.90
2018-04-12T00:52:11.115Z,92.60
2018-04-12T00:53:11.090Z,61.60
2018-04-12T00:54:11.020Z,62.50
2018-04-12T00:55:10.985Z,59.40
2018-04-12T00:56:10.949Z,55.90
2018-04-12T00:57:10.974Z,63.30
2018-04-12T00:58:10.894Z,104.10
2018-04-12T00:59:10.822Z,59.70
2018-04-12T01:00:10.810Z,64.50
2018-04-12T01:01:10.754Z,69.20
2018-04-12T01:02:10.736Z,108.40
2018-04-12T01:03:10.671Z,69.50
2018-04-12T01:04:10.662Z,79.40
2018-04-12T01:05:10.587Z,59.50
2018-04-12T01:06:10.555Z,66.10
2018-04-12T01:07:10.502Z,54.40
2018-04-12T01:08:10.470Z,56.20
2018-04-12T01:09:10.421Z,75.30
2018-04-12T01:10:10.396Z,89.30
2018-04-12T01:11:10.352Z,74.40
2018-04-12T01:12:10.315Z,79.70
2018-04-12T01:13:11.010Z,74.90
2018-04-12T01:14:10.236Z,64.30
2018-04-12T01:15:10.173Z,64.90
2018-04-12T01:16:10.134Z,60.20
2018-04-12T01:17:10.147Z,72.00
2018-04-12T01:18:10.069Z,53.50
2018-04-12T01:19:10.014Z,49.00
2018-04-12T01:20:10.031Z,74.70
2018-04-12T01:21:09.949Z,81.90
2018-04-12T01:22:10.510Z,83.80
2018-04-12T01:23:09.834Z,62.40
2018-04-12T01:24:09.809Z,104.70
2018-04-12T01:25:09.773Z,123.00
2018-04-12T01:26:09.723Z,83.10
2018-04-12T01:27:09.703Z,59.10
2018-04-12T01:28:09.680Z,60.90
2018-04-12T01:29:09.595Z,95.60
2018-04-12T01:30:09.580Z,64.60
2018-04-12T01:31:09.540Z,75.10
2018-04-12T01:32:09.487Z,53.40
2018-04-12T01:33:09.438Z,67.00
2018-04-12T01:34:09.400Z,59.90
2018-04-12T01:35:09.372Z,68.50
2018-04-12T01:36:09.329Z,59.50
2018-04-12T01:37:09.277Z,68.00
2018-04-12T01:38:09.247Z,54.60
2018-04-12T01:39:09.194Z,59.20
2018-04-12T01:40:09.137Z,83.20
2018-04-12T01:41:09.106Z,50.10
2018-04-12T01:42:09.080Z,57.50
2018-04-12T01:43:09.043Z,69.20
2018-04-12T01:44:09.035Z,52.60
2018-04-12T01:45:08.971Z,57.20
2018-04-12T01:46:09.516Z,55.60
2018-04-12T01:47:08.900Z,81.10
2018-04-12T01:48:08.811Z,63.20
2018-04-12T01:49:08.793Z,82.40
2018-04-12T01:50:08.739Z,78.70
2018-04-12T01:51:08.700Z,77.90
2018-04-12T01:52:08.649Z,57.40
2018-04-12T01:53:08.652Z,63.60
2018-04-12T01:54:08.594Z,75.00
2018-04-12T01:55:08.521Z,69.50
2018-04-12T01:56:08.488Z,77.80
2018-04-12T01:57:08.470Z,62.30
2018-04-12T01:58:08.405Z,99.90
2018-04-12T01:59:08.370Z,110.20
2018-04-12T02:00:08.346Z,64.10
2018-04-12T02:01:08.272Z,56.90
2018-04-12T02:02:08.266Z,72.30
2018-04-12T02:03:08.200Z,83.80
2018-04-12T02:04:08.170Z,76.80
2018-04-12T02:05:08.118Z,57.60
2018-04-12T02:06:08.094Z,70.70
2018-04-12T02:07:08.087Z,71.50
2018-04-12T02:08:08.020Z,66.30
2018-04-12T02:09:07.950Z,62.50
2018-04-12T02:10:07.992Z,74.60
2018-04-12T02:11:07.916Z,76.40
2018-04-12T02:12:07.824Z,64.50
2018-04-12T02:13:07.796Z,58.70
2018-04-12T02:14:07.753Z,55.50
2018-04-12T02:15:07.705Z,66.60
2018-04-12T02:16:07.701Z,61.50
2018-04-12T02:17:07.646Z,79.80
2018-04-12T02:18:07.580Z,54.80
2018-04-12T02:19:07.545Z,53.10
2018-04-12T02:20:07.557Z,56.40
2018-04-12T02:21:07.497Z,65.70
2018-04-12T02:22:07.428Z,58.00
2018-04-12T02:23:07.396Z,70.10
2018-04-12T02:24:07.367Z,90.70
2018-04-12T02:25:07.295Z,73.60
2018-04-12T02:26:07.249Z,70.70
2018-04-12T02:27:07.235Z,79.50
2018-04-12T02:28:07.228Z,78.60
2018-04-12T02:29:07.157Z,82.00
2018-04-12T02:30:07.113Z,69.80
2018-04-12T02:31:07.039Z,67.20
2018-04-12T02:32:07.000Z,75.10
2018-04-12T02:33:06.971Z,74.30
2018-04-12T02:34:06.935Z,75.70
2018-04-12T02:35:06.944Z,76.80
2018-04-12T02:36:06.839Z,72.00
2018-04-12T02:37:06.818Z,75.50
2018-04-12T02:38:06.748Z,81.10
2018-04-12T02:39:06.742Z,60.20
2018-04-12T02:40:06.727Z,71.60
2018-04-12T02:41:06.633Z,71.80
2018-04-12T02:42:06.612Z,45.60
2018-04-12T02:43:06.598Z,64.20
2018-04-12T02:44:06.561Z,58.90
2018-04-12T02:45:06.469Z,50.90
2018-04-12T02:46:06.435Z,51.00
2018-04-12T02:47:06.425Z,52.30
2018-04-12T02:48:06.338Z,50.60
2018-04-12T02:49:06.310Z,49.90
2018-04-12T02:50:06.276Z,51.30
2018-04-12T02:51:06.236Z,53.40
2018-04-12T02:52:06.200Z,49.90
2018-04-12T02:53:06.132Z,52.50
2018-04-12T02:54:06.127Z,47.90
2018-04-12T02:55:06.065Z,50.90
2018-04-12T02:56:06.062Z,51.60
2018-04-12T02:57:05.983Z,48.40
2018-04-12T02:58:05.970Z,52.30
2018-04-12T02:59:05.900Z,56.30
2018-04-12T03:00:05.873Z,53.20
2018-04-12T03:01:05.809Z,48.10
2018-04-12T03:02:05.777Z,53.70
2018-04-12T03:03:05.732Z,50.30
2018-04-12T03:04:05.715Z,64.80
2018-04-12T03:05:05.679Z,54.50
2018-04-12T03:06:05.622Z,55.60
2018-04-12T03:07:05.542Z,53.60
2018-04-12T03:08:05.540Z,81.30
2018-04-12T03:09:05.464Z,75.40
2018-04-12T03:10:05.436Z,67.70
2018-04-12T03:11:05.420Z,76.30
2018-04-12T03:12:05.361Z,72.80
2018-04-12T03:13:05.342Z,67.70
2018-04-12T03:14:05.270Z,81.70
2018-04-12T03:15:05.254Z,63.80
2018-04-12T03:16:05.188Z,50.60
2018-04-12T03:17:05.135Z,59.50
2018-04-12T03:18:05.099Z,74.10
2018-04-12T03:19:05.101Z,82.80
2018-04-12T03:20:05.034Z,68.80
2018-04-12T03:21:05.027Z,69.90
2018-04-12T03:22:04.933Z,73.10
2018-04-12T03:23:04.907Z,59.50
2018-04-12T03:24:04.886Z,53.50
2018-04-12T03:25:04.808Z,61.10
2018-04-12T03:26:04.779Z,62.40
2018-04-12T03:27:04.813Z,51.00
2018-04-12T03:28:04.741Z,52.60
2018-04-12T03:29:04.680Z,54.70
2018-04-12T03:30:04.615Z,57.20
2018-04-12T03:31:04.596Z,56.70
2018-04-12T03:32:04.549Z,53.90
2018-04-12T03:33:04.508Z,64.40
2018-04-12T03:34:04.462Z,49.60
2018-04-12T03:35:04.448Z,60.70
2018-04-12T03:36:04.362Z,73.10
2018-04-12T03:37:04.349Z,64.90
2018-04-12T03:38:04.286Z,57.20
2018-04-12T03:39:04.245Z,57.00
2018-04-12T03:40:05.039Z,60.00
2018-04-12T03:41:04.152Z,64.40
2018-04-12T03:42:04.138Z,53.00
2018-04-12T03:43:04.086Z,46.60
2018-04-12T03:44:04.071Z,46.20
2018-04-12T03:45:03.995Z,47.50
2018-04-12T03:46:03.950Z,50.50
2018-04-12T03:47:03.935Z,51.50
2018-04-12T03:48:03.891Z,52.40
2018-04-12T03:49:03.867Z,49.80
2018-04-12T03:50:03.845Z,49.50
2018-04-12T03:51:03.778Z,50.70
2018-04-12T03:52:03.691Z,53.80
2018-04-12T03:53:03.661Z,51.40
2018-04-12T03:54:03.606Z,51.10
2018-04-12T03:55:03.600Z,52.10
2018-04-12T03:56:03.517Z,52.30
2018-04-12T03:57:03.494Z,52.80
2018-04-12T03:58:03.452Z,47.90
2018-04-12T03:59:03.435Z,49.60
2018-04-12T04:00:03.362Z,49.00
2018-04-12T04:01:03.324Z,51.40
2018-04-12T04:02:04.050Z,52.30
2018-04-12T04:03:03.261Z,52.20
2018-04-12T04:04:03.190Z,52.50
2018-04-12T04:05:03.144Z,47.60
2018-04-12T04:06:03.136Z,52.80
2018-04-12T04:07:03.082Z,52.90
2018-04-12T04:08:03.056Z,52.00
2018-04-12T04:09:03.000Z,50.60
2018-04-12T04:10:02.963Z,49.70
2018-04-12T04:11:02.893Z,50.00
2018-04-12T04:12:02.865Z,54.40
2018-04-12T04:13:02.834Z,52.60
2018-04-12T04:14:02.792Z,53.20
2018-04-12T04:15:02.745Z,48.60
2018-04-12T04:16:02.712Z,55.20
2018-04-12T04:17:02.702Z,53.20
2018-04-12T04:18:02.630Z,51.20
2018-04-12T04:19:02.580Z,47.00
2018-04-12T04:20:02.589Z,44.80
2018-04-12T04:21:02.485Z,45.40
2018-04-12T04:22:02.483Z,48.70
2018-04-12T04:23:02.422Z,49.00
2018-04-12T04:24:02.369Z,47.90
2018-04-12T04:25:02.341Z,50.30
2018-04-12T04:26:02.328Z,49.80
2018-04-12T04:27:02.235Z,48.80
2018-04-12T04:28:02.192Z,46.20
2018-04-12T04:29:02.180Z,45.40
2018-04-12T04:30:02.150Z,52.20
2018-04-12T04:31:02.108Z,46.70
2018-04-12T04:32:02.024Z,46.90
2018-04-12T04:33:01.989Z,50.90
2018-04-12T04:34:01.949Z,48.50
2018-04-12T04:35:01.939Z,48.80
2018-04-12T04:36:01.870Z,48.20
2018-04-12T04:37:01.870Z,49.40
2018-04-12T04:38:01.805Z,47.80
2018-04-12T04:39:01.767Z,53.60
2018-04-12T04:40:01.718Z,53.60
2018-04-12T04:41:01.661Z,50.20
2018-04-12T04:42:01.643Z,50.60
2018-04-12T04:43:01.571Z,54.00
2018-04-12T04:44:01.585Z,56.10
2018-04-12T04:45:01.483Z,57.90
2018-04-12T04:46:01.457Z,46.60
2018-04-12T04:47:01.428Z,46.30
2018-04-12T04:48:01.395Z,49.50
2018-04-12T04:49:01.326Z,53.50
2018-04-12T04:50:01.292Z,54.10
2018-04-12T04:51:02.055Z,50.00
2018-04-12T04:52:01.195Z,51.40
2018-04-12T04:53:01.155Z,54.00
2018-04-12T04:54:01.140Z,56.00
2018-04-12T04:55:01.121Z,53.20
2018-04-12T04:56:01.063Z,53.70
2018-04-12T04:57:01.042Z,54.80
2018-04-12T04:58:00.968Z,52.20
2018-04-12T04:59:00.940Z,52.50
2018-04-12T05:00:00.895Z,53.70
2018-04-12T05:01:00.844Z,54.00
2018-04-12T05:02:00.802Z,55.40
2018-04-12T05:03:00.752Z,54.30
2018-04-12T05:04:00.718Z,53.40
2018-04-12T05:05:00.688Z,54.10
2018-04-12T05:06:00.639Z,54.10
2018-04-12T05:07:00.614Z,53.80
2018-04-12T05:08:00.545Z,56.20
2018-04-12T05:09:00.501Z,50.50
2018-04-12T05:10:00.506Z,49.00
2018-04-12T05:11:00.432Z,47.80
2018-04-12T05:12:00.406Z,46.40
2018-04-12T05:13:00.362Z,45.70
2018-04-12T05:14:00.349Z,47.80
2018-04-12T05:15:00.265Z,51.80
2018-04-12T05:16:00.242Z,49.80
2018-04-12T05:17:00.175Z,48.20
2018-04-12T05:18:00.147Z,46.40
2018-04-12T05:19:00.093Z,49.20
2018-04-12T05:20:00.061Z,48.30
2018-04-12T05:21:00.025Z,46.90
2018-04-12T05:21:59.967Z,48.70
2018-04-12T05:22:59.938Z,45.50
2018-04-12T05:23:59.906Z,46.10
2018-04-12T05:24:59.861Z,47.80
2018-04-12T05:25:59.816Z,48.70
2018-04-12T05:26:59.772Z,47.50
2018-04-12T05:27:59.726Z,48.90
2018-04-12T05:28:59.739Z,50.50
2018-04-12T05:29:59.670Z,49.70
2018-04-12T05:30:59.683Z,49.50
2018-04-12T05:31:59.584Z,47.10
2018-04-12T05:32:59.508Z,46.30
2018-04-12T05:33:59.494Z,47.10
2018-04-12T05:34:59.439Z,47.20
2018-04-12T05:35:59.397Z,45.50
2018-04-12T05:36:59.392Z,43.90
2018-04-12T05:37:59.323Z,47.80
2018-04-12T05:38:59.275Z,47.10
2018-04-12T05:39:59.235Z,46.30
2018-04-12T05:40:59.199Z,45.40
2018-04-12T05:41:59.176Z,45.60
2018-04-12T05:42:59.106Z,44.80
2018-04-12T05:43:59.097Z,48.20
2018-04-12T05:44:59.064Z,48.00
2018-04-12T05:45:58.997Z,47.30
2018-04-12T05:46:58.993Z,47.80
2018-04-12T05:47:58.954Z,48.20
2018-04-12T05:48:58.926Z,48.40
2018-04-12T05:49:58.833Z,50.60
2018-04-12T05:50:58.811Z,50.80
2018-04-12T05:51:58.757Z,45.80
2018-04-12T05:52:58.756Z,44.30
2018-04-12T05:53:58.688Z,43.00
2018-04-12T05:54:58.691Z,44.20
2018-04-12T05:55:58.622Z,45.20
2018-04-12T05:56:58.603Z,44.80
2018-04-12T05:57:58.515Z,46.00
2018-04-12T05:58:58.511Z,41.90
2018-04-12T05:59:58.494Z,42.40
2018-04-12T06:00:58.405Z,40.80
2018-04-12T06:01:58.375Z,41.60
2018-04-12T06:02:58.328Z,39.70
2018-04-12T06:03:58.287Z,38.20
2018-04-12T06:04:58.283Z,35.90
2018-04-12T06:05:58.215Z,35.70
2018-04-12T06:06:58.210Z,35.40
2018-04-12T06:07:58.142Z,34.80
2018-04-12T06:08:58.117Z,35.40
2018-04-12T06:09:58.049Z,35.40
2018-04-12T06:10:58.019Z,35.90
2018-04-12T06:11:57.974Z,36.50
2018-04-12T06:12:57.983Z,35.40
2018-04-12T06:13:57.897Z,33.30
2018-04-12T06:14:57.861Z,36.00
2018-04-12T06:15:57.831Z,37.20
2018-04-12T06:16:57.830Z,40.00
2018-04-12T06:17:57.743Z,33.90
2018-04-12T06:18:57.725Z,34.50
2018-04-12T06:19:57.677Z,33.20
2018-04-12T06:20:57.644Z,34.90
2018-04-12T06:21:57.597Z,36.20
2018-04-12T06:22:57.586Z,40.90
2018-04-12T06:23:57.550Z,48.20
2018-04-12T06:24:57.484Z,42.30
2018-04-12T06:25:57.450Z,35.20
2018-04-12T06:26:57.421Z,35.40
2018-04-12T06:27:57.363Z,36.30
2018-04-12T06:28:57.346Z,36.20
2018-04-12T06:29:57.292Z,33.80
2018-04-12T06:30:57.241Z,33.00
2018-04-12T06:31:57.228Z,33.70
2018-04-12T06:32:57.182Z,33.30
2018-04-12T06:33:57.125Z,34.50
2018-04-12T06:34:57.086Z,34.80
2018-04-12T06:35:57.089Z,35.00
2018-04-12T06:36:57.050Z,36.40
2018-04-12T06:37:57.004Z,34.60
2018-04-12T06:38:56.990Z,35.60
2018-04-12T06:39:56.922Z,36.90
2018-04-12T06:40:56.861Z,31.50
2018-04-12T06:41:56.821Z,30.20
2018-04-12T06:42:56.833Z,29.70
2018-04-12T06:43:56.757Z,28.00
2018-04-12T06:44:56.722Z,31.00
2018-04-12T06:45:56.719Z,31.30
2018-04-12T06:46:56.656Z,30.80
2018-04-12T06:47:56.614Z,31.10
2018-04-12T06:48:56.563Z,31.20
2018-04-12T06:49:56.557Z,30.50
2018-04-12T06:50:56.482Z,30.90
2018-04-12T06:51:56.461Z,28.90
2018-04-12T06:52:56.441Z,28.80
2018-04-12T06:53:56.393Z,29.80
2018-04-12T06:54:56.354Z,29.60
2018-04-12T06:55:56.377Z,29.70
2018-04-12T06:56:56.285Z,28.00
2018-04-12T06:57:56.251Z,26.60
2018-04-12T06:58:56.231Z,26.10
2018-04-12T06:59:56.155Z,26.20
2018-04-12T07:00:56.122Z,25.90
2018-04-12T07:01:56.117Z,27.10
2018-04-12T07:02:56.099Z,25.50
2018-04-12T07:03:56.041Z,25.90
2018-04-12T07:04:56.007Z,25.20
2018-04-12T07:05:55.983Z,24.50
2018-04-12T07:06:55.938Z,23.10
2018-04-12T07:07:55.899Z,21.10
2018-04-12T07:08:55.880Z,21.00
2018-04-12T07:09:55.826Z,20.50
2018-04-12T07:10:55.781Z,22.80
2018-04-12T07:11:55.734Z,21.60
2018-04-12T07:12:55.711Z,21.70
2018-04-12T07:13:55.725Z,23.60
2018-04-12T07:14:55.652Z,23.80
2018-04-12T07:15:55.622Z,23.20
2018-04-12T07:16:55.606Z,22.40
2018-04-12T07:17:55.556Z,22.70
2018-04-12T07:18:56.082Z,21.50
2018-04-12T07:19:55.473Z,21.80
2018-04-12T07:20:55.427Z,21.40
2018-04-12T07:21:55.394Z,20.80
2018-04-12T07:22:55.359Z,21.80
2018-04-12T07:23:55.348Z,22.00
2018-04-12T07:24:55.311Z,22.70
2018-04-12T07:25:55.291Z,22.10
2018-04-12T07:26:55.234Z,22.30
2018-04-12T07:27:55.191Z,22.40
2018-04-12T07:28:55.153Z,22.50
2018-04-12T07:29:55.111Z,23.10
2018-04-12T07:30:55.098Z,23.00
2018-04-12T07:31:55.054Z,23.20
2018-04-12T07:32:55.009Z,23.10
2018-04-12T07:33:55.009Z,23.60
2018-04-12T07:34:54.958Z,22.30
2018-04-12T07:35:54.927Z,22.70
2018-04-12T07:36:54.881Z,22.60
2018-04-12T07:37:54.839Z,23.10
2018-04-12T07:38:54.829Z,23.60
2018-04-12T07:39:54.758Z,23.90
2018-04-12T07:40:54.759Z,22.60
2018-04-12T07:41:54.724Z,21.90
2018-04-12T07:42:54.661Z,23.30
2018-04-12T07:43:54.662Z,21.70
2018-04-12T07:44:54.593Z,23.10
2018-04-12T07:45:54.575Z,22.10
2018-04-12T07:46:54.537Z,23.80
2018-04-12T07:47:54.500Z,23.30
2018-04-12T07:48:54.460Z,24.00
2018-04-12T07:49:54.421Z,23.30
2018-04-12T07:50:54.420Z,22.90
2018-04-12T07:51:54.359Z,23.00
2018-04-12T07:52:54.313Z,20.30
2018-04-12T07:53:54.307Z,21.40
2018-04-12T07:54:54.253Z,21.90
2018-04-12T07:55:54.234Z,20.00
2018-04-12T07:56:54.194Z,20.50
2018-04-12T07:57:54.162Z,19.00
2018-04-12T07:58:54.135Z,20.00
2018-04-12T07:59:54.095Z,21.10
2018-04-12T08:00:54.071Z,19.40
2018-04-12T08:01:54.043Z,17.00
2018-04-12T08:02:53.982Z,17.10
2018-04-12T08:03:53.973Z,15.70
2018-04-12T08:04:53.919Z,15.20
2018-04-12T08:05:53.907Z,13.70
2018-04-12T08:06:53.892Z,13.50
2018-04-12T08:07:53.847Z,13.40
2018-04-12T08:08:53.837Z,13.20
2018-04-12T08:09:53.797Z,12.10
2018-04-12T08:10:53.770Z,11.60
2018-04-12T08:11:53.728Z,11.80
2018-04-12T08:12:53.723Z,12.00
2018-04-12T08:13:53.713Z,11.80
2018-04-12T08:14:53.670Z,13.80
2018-04-12T08:15:53.639Z,10.90
2018-04-12T08:16:53.630Z,9.60
2018-04-12T08:17:53.571Z,9.20
2018-04-12T08:18:53.566Z,10.10
2018-04-12T08:19:53.542Z,10.40
2018-04-12T08:20:53.510Z,9.90
2018-04-12T08:21:53.477Z,9.90
2018-04-12T08:22:53.443Z,10.10
2018-04-12T08:23:53.438Z,9.60
2018-04-12T08:24:53.407Z,9.40
2018-04-12T08:25:53.391Z,8.80
2018-04-12T08:26:53.358Z,8.80
2018-04-12T08:27:53.352Z,9.10
2018-04-12T08:28:53.348Z,8.50
2018-04-12T08:29:53.280Z,9.00
2018-04-12T08:30:53.270Z,9.30
2018-04-12T08:31:53.242Z,9.00
2018-04-12T08:32:53.241Z,8.90
2018-04-12T08:33:53.223Z,8.60
2018-04-12T08:34:53.201Z,8.80
2018-04-12T08:35:53.160Z,8.60
2018-04-12T08:36:54.701Z,8.60
2018-04-12T08:37:53.140Z,7.90
2018-04-12T08:38:53.089Z,8.30
2018-04-12T08:39:53.060Z,9.00
2018-04-12T08:40:53.049Z,8.40
2018-04-12T08:41:53.034Z,8.40
2018-04-12T08:42:53.071Z,8.30
2018-04-12T08:43:52.986Z,8.50
2018-04-12T08:44:52.946Z,8.40
2018-04-12T08:45:52.961Z,9.10
2018-04-12T08:46:52.942Z,8.00
2018-04-12T08:47:52.913Z,8.30
2018-04-12T08:48:52.889Z,9.00
2018-04-12T08:49:52.859Z,8.70
2018-04-12T08:50:52.828Z,8.30
2018-04-12T08:51:52.806Z,8.50
2018-04-12T08:52:52.822Z,8.70
2018-04-12T08:53:52.785Z,8.30
2018-04-12T08:54:52.766Z,8.60
2018-04-12T08:55:52.771Z,8.20
2018-04-12T08:56:52.710Z,8.40
2018-04-12T08:57:52.699Z,8.00
2018-04-12T08:58:52.680Z,7.20
2018-04-12T08:59:52.654Z,7.70
2018-04-12T09:00:52.633Z,7.50
2018-04-12T09:01:52.619Z,8.00
2018-04-12T09:02:52.590Z,7.70
2018-04-12T09:03:52.555Z,7.00
2018-04-12T09:04:52.554Z,7.30
2018-04-12T09:05:52.514Z,9.10
2018-04-12T09:06:52.513Z,8.20
2018-04-12T09:07:52.480Z,12.80
2018-04-12T09:08:52.487Z,8.50
2018-04-12T09:09:52.452Z,7.40
2018-04-12T09:10:52.433Z,7.00
2018-04-12T09:11:52.418Z,7.50
2018-04-12T09:12:52.409Z,6.70
2018-04-12T09:13:52.373Z,6.80
2018-04-12T09:14:52.374Z,6.60
2018-04-12T09:15:52.339Z,7.20
2018-04-12T09:16:52.325Z,7.30
2018-04-12T09:17:52.327Z,6.70
2018-04-12T09:18:52.277Z,6.10
2018-04-12T09:19:52.257Z,6.20
2018-04-12T09:20:52.266Z,6.00
2018-04-12T09:21:52.223Z,6.30
2018-04-12T09:22:52.205Z,6.20
2018-04-12T09:23:52.168Z,6.00
2018-04-12T09:24:52.151Z,5.50
2018-04-12T09:25:52.178Z,6.20
2018-04-12T09:26:52.118Z,6.00
2018-04-12T09:27:52.089Z,6.60
2018-04-12T09:28:52.093Z,5.40
2018-04-12T09:29:52.081Z,5.60
2018-04-12T09:30:52.055Z,5.10
2018-04-12T09:31:52.037Z,5.40
2018-04-12T09:32:51.997Z,4.90
2018-04-12T09:33:51.987Z,5.30
2018-04-12T09:34:51.987Z,5.00
2018-04-12T09:35:51.952Z,5.20
2018-04-12T09:36:51.931Z,5.10
2018-04-12T09:37:51.901Z,5.00
2018-04-12T09:38:51.920Z,5.30
2018-04-12T09:39:51.961Z,5.30
2018-04-12T09:40:51.854Z,5.50
2018-04-12T09:41:51.834Z,5.50
2018-04-12T09:42:51.833Z,5.50
2018-04-12T09:43:51.802Z,5.50
2018-04-12T09:44:51.777Z,5.50
2018-04-12T09:45:51.784Z,5.80
2018-04-12T09:46:51.742Z,5.70
2018-04-12T09:47:51.720Z,5.50
2018-04-12T09:48:51.686Z,6.00
2018-04-12T09:49:51.696Z,6.00
2018-04-12T09:50:51.650Z,5.60
2018-04-12T09:51:51.641Z,5.70
2018-04-12T09:52:51.635Z,5.40
2018-04-12T09:53:51.607Z,5.70
2018-04-12T09:54:51.592Z,5.20
2018-04-12T09:55:51.574Z,6.20
2018-04-12T09:56:51.534Z,6.00
2018-04-12T09:57:51.536Z,5.60
2018-04-12T09:58:53.234Z,5.80
2018-04-12T09:59:51.495Z,5.40
2018-04-12T10:00:51.484Z,6.10
2018-04-12T10:01:51.444Z,5.30
2018-04-12T10:02:51.423Z,5.90
2018-04-12T10:03:51.404Z,5.60
2018-04-12T10:04:51.373Z,6.10
2018-04-12T10:05:51.368Z,6.00
2018-04-12T10:06:51.362Z,5.60
2018-04-12T10:07:51.353Z,6.20
2018-04-12T10:08:51.325Z,5.40
2018-04-12T10:09:51.285Z,6.40
2018-04-12T10:10:51.280Z,5.80
2018-04-12T10:11:51.265Z,5.90
2018-04-12T10:12:51.247Z,6.40
2018-04-12T10:13:51.217Z,7.50
2018-04-12T10:14:51.204Z,6.00
2018-04-12T10:15:51.168Z,6.20
2018-04-12T10:16:51.187Z,6.10
2018-04-12T10:17:51.132Z,5.80
2018-04-12T10:18:51.129Z,6.00
2018-04-12T10:19:51.097Z,6.20
2018-04-12T10:20:51.079Z,6.10
2018-04-12T10:21:51.069Z,5.70
2018-04-12T10:22:51.072Z,6.40
2018-04-12T10:23:51.015Z,6.80
2018-04-12T10:24:50.999Z,6.40
2018-04-12T10:25:50.993Z,5.80
2018-04-12T10:26:50.956Z,6.20
2018-04-12T10:27:50.962Z,5.60
2018-04-12T10:28:50.946Z,5.90
2018-04-12T10:29:50.914Z,6.20
2018-04-12T10:30:50.885Z,5.80
2018-04-12T10:31:50.873Z,6.20
2018-04-12T10:32:50.879Z,6.10
2018-04-12T10:33:50.845Z,6.10
2018-04-12T10:34:50.798Z,5.60
2018-04-12T10:35:50.828Z,5.40
2018-04-12T10:36:50.757Z,6.70
2018-04-12T10:37:50.744Z,5.90
2018-04-12T10:38:50.719Z,6.10
2018-04-12T10:39:50.697Z,6.00
2018-04-12T10:40:50.696Z,5.70
2018-04-12T10:41:50.691Z,5.50
2018-04-12T10:42:50.660Z,5.20
2018-04-12T10:43:50.616Z,6.20
2018-04-12T10:44:50.642Z,5.70
2018-04-12T10:45:50.601Z,5.70
2018-04-12T10:46:50.650Z,5.80
2018-04-12T10:47:50.541Z,5.30
2018-04-12T10:48:50.537Z,5.90
2018-04-12T10:49:50.533Z,5.80
2018-04-12T10:50:50.513Z,5.80
2018-04-12T10:51:50.496Z,5.20
2018-04-12T10:52:50.473Z,5.70
2018-04-12T10:53:50.430Z,5.60
2018-04-12T10:54:50.437Z,5.20
2018-04-12T10:55:50.389Z,5.70
2018-04-12T10:56:50.397Z,5.30
2018-04-12T10:57:50.339Z,5.30
2018-04-12T10:58:50.330Z,5.20
2018-04-12T10:59:50.328Z,6.00
2018-04-12T11:00:50.299Z,5.50
2018-04-12T11:01:50.269Z,5.40
2018-04-12T11:02:50.256Z,6.00
2018-04-12T11:03:50.244Z,5.80
2018-04-12T11:04:50.213Z,6.10
2018-04-12T11:05:50.182Z,5.40
2018-04-12T11:06:50.176Z,5.80
2018-04-12T11:07:50.155Z,6.10
2018-04-12T11:08:50.147Z,5.10
2018-04-12T11:09:50.111Z,5.60
2018-04-12T11:10:50.143Z,5.40
2018-04-12T11:11:50.065Z,5.50
2018-04-12T11:12:50.058Z,5.50
2018-04-12T11:13:50.033Z,5.30
2018-04-12T11:14:50.020Z,5.30
2018-04-12T11:15:50.017Z,4.70
2018-04-12T11:16:49.971Z,5.10
2018-04-12T11:17:50.008Z,4.90
2018-04-12T11:18:49.934Z,4.80
2018-04-12T11:19:49.923Z,4.90
2018-04-12T11:20:49.883Z,5.20
2018-04-12T11:21:49.865Z,4.80
2018-04-12T11:22:49.875Z,4.70
2018-04-12T11:23:49.838Z,4.60
2018-04-12T11:24:49.831Z,4.50
2018-04-12T11:25:49.804Z,4.20
2018-04-12T11:26:49.766Z,4.30
2018-04-12T11:27:49.760Z,4.60
2018-04-12T11:28:49.726Z,4.10
2018-04-12T11:29:49.733Z,3.90
2018-04-12T11:30:49.715Z,4.50
2018-04-12T11:31:49.701Z,4.10
2018-04-12T11:32:49.656Z,4.60
2018-04-12T11:33:49.640Z,4.30
2018-04-12T11:34:49.636Z,4.30
2018-04-12T11:35:49.588Z,4.30
2018-04-12T11:36:49.564Z,4.10
2018-04-12T11:37:49.544Z,4.40
2018-04-12T11:38:49.511Z,4.40
2018-04-12T11:39:49.500Z,4.20
2018-04-12T11:40:49.489Z,4.00
2018-04-12T11:41:49.477Z,4.20
2018-04-12T11:42:49.453Z,4.00
2018-04-12T11:43:49.409Z,4.30
2018-04-12T11:44:49.406Z,5.10
2018-04-12T11:45:49.364Z,4.70
2018-04-12T11:46:49.382Z,4.20
2018-04-12T11:47:49.321Z,4.40
2018-04-12T11:48:49.312Z,4.50
2018-04-12T11:49:49.343Z,4.30
2018-04-12T11:50:49.274Z,3.90
2018-04-12T11:51:49.253Z,4.30
2018-04-12T11:52:49.240Z,3.90
2018-04-12T11:53:49.213Z,4.00
2018-04-12T11:54:49.177Z,4.30
2018-04-12T11:55:49.136Z,4.50
2018-04-12T11:56:49.172Z,4.20
2018-04-12T11:57:49.101Z,4.20
2018-04-12T11:58:49.095Z,4.20
2018-04-12T11:59:49.069Z,3.90
2018-04-12T12:00:49.065Z,4.70
2018-04-12T12:01:49.002Z,4.20
2018-04-12T12:02:49.016Z,4.40
2018-04-12T12:03:48.967Z,4.80
2018-04-12T12:04:48.935Z,4.40
2018-04-12T12:05:48.903Z,3.80
2018-04-12T12:06:48.926Z,4.40
2018-04-12T12:07:48.891Z,4.10
2018-04-12T12:08:48.866Z,4.20
2018-04-12T12:09:48.875Z,3.40
2018-04-12T12:10:48.796Z,4.00
2018-04-12T12:11:48.788Z,4.40
2018-04-12T12:12:48.764Z,3.70
2018-04-12T12:13:48.764Z,3.90
2018-04-12T12:14:48.742Z,4.60
2018-04-12T12:15:48.693Z,4.30
2018-04-12T12:16:48.672Z,3.90
2018-04-12T12:17:48.694Z,4.30
2018-04-12T12:18:48.630Z,4.30
2018-04-12T12:19:48.626Z,4.00
2018-04-12T12:20:48.633Z,3.50
2018-04-12T12:21:48.576Z,3.40
2018-04-12T12:22:48.559Z,3.30
2018-04-12T12:23:48.611Z,3.20
2018-04-12T12:24:48.501Z,3.00
2018-04-12T12:25:48.485Z,3.50
2018-04-12T12:26:48.458Z,3.10
2018-04-12T12:27:48.433Z,3.80
2018-04-12T12:28:48.443Z,3.60
2018-04-12T12:29:48.393Z,3.30
2018-04-12T12:30:48.387Z,3.60
2018-04-12T12:31:48.368Z,3.40
2018-04-12T12:32:48.314Z,3.60
2018-04-12T12:33:48.328Z,3.40
2018-04-12T12:34:48.273Z,3.60
2018-04-12T12:35:48.253Z,2.90
2018-04-12T12:36:48.223Z,3.20
2018-04-12T12:37:48.209Z,3.50
2018-04-12T12:38:48.218Z,2.80
2018-04-12T12:39:48.172Z,3.50
2018-04-12T12:40:48.141Z,2.90
2018-04-12T12:41:48.135Z,3.10
2018-04-12T12:42:48.126Z,3.10
2018-04-12T12:43:48.119Z,3.20
2018-04-12T12:44:48.058Z,3.40
2018-04-12T12:45:48.036Z,3.30
2018-04-12T12:46:48.042Z,3.50
2018-04-12T12:47:47.985Z,3.60
2018-04-12T12:48:47.988Z,3.10
2018-04-12T12:49:47.945Z,3.20
2018-04-12T12:50:47.975Z,3.60
2018-04-12T12:51:47.905Z,3.40
2018-04-12T12:52:47.882Z,3.50
2018-04-12T12:53:47.899Z,3.30
2018-04-12T12:54:47.855Z,3.40
2018-04-12T12:55:47.818Z,3.40
2018-04-12T12:56:47.808Z,3.30
2018-04-12T12:57:47.784Z,3.00
2018-04-12T12:58:47.765Z,3.50
2018-04-12T12:59:47.746Z,3.20
2018-04-12T13:00:47.717Z,3.40